sensor_id;sensor_type;location;lat;lon;timestamp;P1;durP1;ratioP1;P2;durP2;ratioP2
27313;SDS011;14800;48.174;9.798;2023-09-19T00:01:19;4.05;;;1.40;;
27313;SDS011;14800;48.174;9.798;2023-09-19T00:03:45;2.00;;;1.70;;
27313;SDS011;14800;48.174;9.798;2023-09-19T00:06:11;4.00;;;1.50;;
27313;SDS011;14800;48.174;9.798;2023-09-19T00:08:40;2.05;;;1.33;;
27313;SDS011;14800;48.174;9.798;2023-09-19T00:11:09;2.55;;;1.50;;
27313;SDS011;14800;48.174;9.798;2023-09-19T00:13:35;2.53;;;1.42;;
27313;SDS011;14800;48.174;9.798;2023-09-19T00:16:07;1.67;;;1.30;;
27313;SDS011;14800;48.174;9.798;2023-09-19T00:21:03;2.13;;;1.35;;
27313;SDS011;14800;48.174;9.798;2023-09-19T00:23:30;1.90;;;1.13;;
27313;SDS011;14800;48.174;9.798;2023-09-19T00:25:59;1.75;;;1.60;;
27313;SDS011;14800;48.174;9.798;2023-09-19T00:28:25;2.88;;;1.58;;
27313;SDS011;14800;48.174;9.798;2023-09-19T00:30:51;2.80;;;1.40;;
27313;SDS011;14800;48.174;9.798;2023-09-19T00:33:19;4.28;;;1.42;;
27313;SDS011;14800;48.174;9.798;2023-09-19T00:35:48;2.40;;;1.40;;
27313;SDS011;14800;48.174;9.798;2023-09-19T00:38:15;1.73;;;1.50;;
27313;SDS011;14800;48.174;9.798;2023-09-19T00:40:46;3.03;;;1.40;;
27313;SDS011;14800;48.174;9.798;2023-09-19T00:43:12;1.98;;;1.30;;
27313;SDS011;14800;48.174;9.798;2023-09-19T00:45:39;1.17;;;1.05;;
27313;SDS011;14800;48.174;9.798;2023-09-19T00:48:09;2.80;;;1.20;;
27313;SDS011;14800;48.174;9.798;2023-09-19T00:50:35;2.08;;;1.20;;
27313;SDS011;14800;48.174;9.798;2023-09-19T00:53:01;2.80;;;1.20;;
27313;SDS011;14800;48.174;9.798;2023-09-19T00:55:33;1.70;;;1.17;;
27313;SDS011;14800;48.174;9.798;2023-09-19T00:58:04;1.98;;;1.40;;
27313;SDS011;14800;48.174;9.798;2023-09-19T01:00:34;3.28;;;1.35;;
27313;SDS011;14800;48.174;9.798;2023-09-19T01:03:00;1.95;;;1.55;;
27313;SDS011;14800;48.174;9.798;2023-09-19T01:05:26;3.25;;;1.55;;
27313;SDS011;14800;48.174;9.798;2023-09-19T01:07:53;2.70;;;1.25;;
27313;SDS011;14800;48.174;9.798;2023-09-19T01:10:19;2.65;;;1.40;;
27313;SDS011;14800;48.174;9.798;2023-09-19T01:18:21;3.63;;;1.40;;
27313;SDS011;14800;48.174;9.798;2023-09-19T01:29:47;1.90;;;1.20;;
27313;SDS011;14800;48.174;9.798;2023-09-19T01:32:18;2.72;;;1.20;;
27313;SDS011;14800;48.174;9.798;2023-09-19T01:34:54;1.90;;;1.30;;
27313;SDS011;14800;48.174;9.798;2023-09-19T01:37:23;4.20;;;1.38;;
27313;SDS011;14800;48.174;9.798;2023-09-19T01:40:03;2.75;;;1.17;;
27313;SDS011;14800;48.174;9.798;2023-09-19T01:42:49;5.25;;;1.30;;
27313;SDS011;14800;48.174;9.798;2023-09-19T01:51:32;1.63;;;1.33;;
27313;SDS011;14800;48.174;9.798;2023-09-19T01:54:03;2.33;;;1.30;;
27313;SDS011;14800;48.174;9.798;2023-09-19T01:56:45;2.45;;;1.10;;
27313;SDS011;14800;48.174;9.798;2023-09-19T01:59:17;1.70;;;1.30;;
27313;SDS011;14800;48.174;9.798;2023-09-19T02:01:49;3.22;;;1.05;;
27313;SDS011;14800;48.174;9.798;2023-09-19T02:04:18;2.17;;;1.48;;
27313;SDS011;14800;48.174;9.798;2023-09-19T02:06:43;2.65;;;1.13;;
27313;SDS011;14800;48.174;9.798;2023-09-19T02:09:12;1.95;;;1.23;;
27313;SDS011;14800;48.174;9.798;2023-09-19T02:11:39;4.40;;;1.35;;
27313;SDS011;14800;48.174;9.798;2023-09-19T02:14:05;2.20;;;1.10;;
27313;SDS011;14800;48.174;9.798;2023-09-19T02:16:33;2.53;;;1.05;;
27313;SDS011;14800;48.174;9.798;2023-09-19T02:18:59;3.70;;;1.48;;
27313;SDS011;14800;48.174;9.798;2023-09-19T02:21:25;4.00;;;1.30;;
27313;SDS011;14800;48.174;9.798;2023-09-19T02:23:54;3.38;;;1.25;;
27313;SDS011;14800;48.174;9.798;2023-09-19T02:26:20;3.38;;;1.23;;
27313;SDS011;14800;48.174;9.798;2023-09-19T02:28:48;1.10;;;1.00;;
27313;SDS011;14800;48.174;9.798;2023-09-19T02:31:14;2.58;;;1.17;;
27313;SDS011;14800;48.174;9.798;2023-09-19T02:33:41;2.92;;;1.30;;
27313;SDS011;14800;48.174;9.798;2023-09-19T02:36:07;1.20;;;1.00;;
27313;SDS011;14800;48.174;9.798;2023-09-19T02:38:33;1.42;;;0.93;;
27313;SDS011;14800;48.174;9.798;2023-09-19T02:40:59;1.60;;;1.20;;
27313;SDS011;14800;48.174;9.798;2023-09-19T02:43:25;1.45;;;1.00;;
27313;SDS011;14800;48.174;9.798;2023-09-19T02:45:50;3.13;;;1.08;;
27313;SDS011;14800;48.174;9.798;2023-09-19T02:48:18;1.25;;;1.15;;
27313;SDS011;14800;48.174;9.798;2023-09-19T02:50:44;2.25;;;0.90;;
27313;SDS011;14800;48.174;9.798;2023-09-19T02:53:10;3.63;;;0.95;;
27313;SDS011;14800;48.174;9.798;2023-09-19T02:55:38;3.88;;;1.10;;
27313;SDS011;14800;48.174;9.798;2023-09-19T02:58:07;1.38;;;0.93;;
27313;SDS011;14800;48.174;9.798;2023-09-19T03:00:36;1.70;;;1.00;;
27313;SDS011;14800;48.174;9.798;2023-09-19T03:03:02;1.15;;;0.90;;
27313;SDS011;14800;48.174;9.798;2023-09-19T03:05:28;2.28;;;1.20;;
27313;SDS011;14800;48.174;9.798;2023-09-19T03:07:57;4.20;;;1.20;;
27313;SDS011;14800;48.174;9.798;2023-09-19T03:10:25;1.33;;;1.10;;
27313;SDS011;14800;48.174;9.798;2023-09-19T03:12:51;1.48;;;1.08;;
27313;SDS011;14800;48.174;9.798;2023-09-19T03:15:17;2.88;;;1.05;;
27313;SDS011;14800;48.174;9.798;2023-09-19T03:17:43;3.15;;;0.98;;
27313;SDS011;14800;48.174;9.798;2023-09-19T03:20:10;2.65;;;1.00;;
27313;SDS011;14800;48.174;9.798;2023-09-19T03:22:40;1.10;;;1.00;;
27313;SDS011;14800;48.174;9.798;2023-09-19T03:25:07;0.70;;;0.70;;
27313;SDS011;14800;48.174;9.798;2023-09-19T03:27:35;2.65;;;1.00;;
27313;SDS011;14800;48.174;9.798;2023-09-19T03:30:01;1.60;;;0.90;;
27313;SDS011;14800;48.174;9.798;2023-09-19T03:32:32;2.17;;;1.00;;
27313;SDS011;14800;48.174;9.798;2023-09-19T03:34:57;1.95;;;0.80;;
27313;SDS011;14800;48.174;9.798;2023-09-19T03:37:23;1.50;;;1.10;;
27313;SDS011;14800;48.174;9.798;2023-09-19T03:39:49;0.85;;;0.82;;
27313;SDS011;14800;48.174;9.798;2023-09-19T03:42:15;1.95;;;0.80;;
27313;SDS011;14800;48.174;9.798;2023-09-19T03:44:40;1.15;;;0.85;;
27313;SDS011;14800;48.174;9.798;2023-09-19T03:47:06;1.42;;;0.90;;
27313;SDS011;14800;48.174;9.798;2023-09-19T03:49:32;1.55;;;0.80;;
27313;SDS011;14800;48.174;9.798;2023-09-19T03:51:59;1.60;;;1.10;;
27313;SDS011;14800;48.174;9.798;2023-09-19T03:54:24;1.50;;;0.80;;
27313;SDS011;14800;48.174;9.798;2023-09-19T03:56:50;2.15;;;0.88;;
27313;SDS011;14800;48.174;9.798;2023-09-19T03:59:15;0.90;;;0.90;;
27313;SDS011;14800;48.174;9.798;2023-09-19T04:01:41;1.05;;;0.73;;
27313;SDS011;14800;48.174;9.798;2023-09-19T04:04:07;1.98;;;0.75;;
27313;SDS011;14800;48.174;9.798;2023-09-19T04:06:36;1.27;;;0.90;;
27313;SDS011;14800;48.174;9.798;2023-09-19T04:09:02;1.48;;;1.00;;
27313;SDS011;14800;48.174;9.798;2023-09-19T04:11:28;0.75;;;0.65;;
27313;SDS011;14800;48.174;9.798;2023-09-19T04:13:55;1.98;;;0.90;;
27313;SDS011;14800;48.174;9.798;2023-09-19T04:16:21;1.60;;;0.80;;
27313;SDS011;14800;48.174;9.798;2023-09-19T04:18:46;0.68;;;0.63;;
27313;SDS011;14800;48.174;9.798;2023-09-19T04:21:12;2.03;;;0.60;;
27313;SDS011;14800;48.174;9.798;2023-09-19T04:23:38;1.15;;;0.70;;
27313;SDS011;14800;48.174;9.798;2023-09-19T04:26:03;1.58;;;0.77;;
27313;SDS011;14800;48.174;9.798;2023-09-19T04:28:32;2.40;;;1.00;;
27313;SDS011;14800;48.174;9.798;2023-09-19T04:30:59;1.05;;;0.80;;
27313;SDS011;14800;48.174;9.798;2023-09-19T04:33:25;1.95;;;0.70;;
27313;SDS011;14800;48.174;9.798;2023-09-19T04:35:54;0.82;;;0.70;;
27313;SDS011;14800;48.174;9.798;2023-09-19T04:38:20;2.70;;;0.80;;
27313;SDS011;14800;48.174;9.798;2023-09-19T04:40:46;0.95;;;0.70;;
27313;SDS011;14800;48.174;9.798;2023-09-19T04:43:12;2.20;;;0.90;;
27313;SDS011;14800;48.174;9.798;2023-09-19T04:45:38;2.60;;;0.80;;
27313;SDS011;14800;48.174;9.798;2023-09-19T04:48:05;1.10;;;0.80;;
27313;SDS011;14800;48.174;9.798;2023-09-19T04:50:33;1.50;;;0.80;;
27313;SDS011;14800;48.174;9.798;2023-09-19T04:52:59;2.20;;;0.85;;
27313;SDS011;14800;48.174;9.798;2023-09-19T04:55:26;2.00;;;0.90;;
27313;SDS011;14800;48.174;9.798;2023-09-19T04:57:52;1.63;;;0.85;;
27313;SDS011;14800;48.174;9.798;2023-09-19T05:00:19;1.13;;;0.60;;
27313;SDS011;14800;48.174;9.798;2023-09-19T05:02:49;0.80;;;0.70;;
27313;SDS011;14800;48.174;9.798;2023-09-19T05:05:18;1.17;;;0.60;;
27313;SDS011;14800;48.174;9.798;2023-09-19T05:07:45;1.98;;;0.80;;
27313;SDS011;14800;48.174;9.798;2023-09-19T05:10:11;1.23;;;0.80;;
27313;SDS011;14800;48.174;9.798;2023-09-19T05:12:37;1.05;;;0.70;;
27313;SDS011;14800;48.174;9.798;2023-09-19T05:15:04;1.65;;;0.80;;
27313;SDS011;14800;48.174;9.798;2023-09-19T05:17:32;1.05;;;0.65;;
27313;SDS011;14800;48.174;9.798;2023-09-19T05:20:01;4.28;;;0.90;;
27313;SDS011;14800;48.174;9.798;2023-09-19T05:22:40;1.45;;;0.60;;
27313;SDS011;14800;48.174;9.798;2023-09-19T05:25:08;2.00;;;0.70;;
27313;SDS011;14800;48.174;9.798;2023-09-19T05:27:34;1.48;;;0.82;;
27313;SDS011;14800;48.174;9.798;2023-09-19T05:30:00;2.05;;;0.68;;
27313;SDS011;14800;48.174;9.798;2023-09-19T05:32:26;1.83;;;0.88;;
27313;SDS011;14800;48.174;9.798;2023-09-19T05:34:51;1.58;;;0.70;;
27313;SDS011;14800;48.174;9.798;2023-09-19T05:37:18;0.95;;;0.65;;
27313;SDS011;14800;48.174;9.798;2023-09-19T05:39:44;1.75;;;0.70;;
27313;SDS011;14800;48.174;9.798;2023-09-19T05:42:10;1.15;;;0.70;;
27313;SDS011;14800;48.174;9.798;2023-09-19T05:44:35;2.65;;;0.80;;
27313;SDS011;14800;48.174;9.798;2023-09-19T05:47:02;0.40;;;0.40;;
27313;SDS011;14800;48.174;9.798;2023-09-19T05:49:28;3.08;;;0.65;;
27313;SDS011;14800;48.174;9.798;2023-09-19T05:51:53;1.52;;;0.60;;
27313;SDS011;14800;48.174;9.798;2023-09-19T05:54:21;1.65;;;0.70;;
27313;SDS011;14800;48.174;9.798;2023-09-19T05:56:47;0.63;;;0.60;;
27313;SDS011;14800;48.174;9.798;2023-09-19T05:59:13;1.48;;;0.73;;
27313;SDS011;14800;48.174;9.798;2023-09-19T06:01:40;2.60;;;0.75;;
27313;SDS011;14800;48.174;9.798;2023-09-19T06:04:07;1.08;;;0.60;;
27313;SDS011;14800;48.174;9.798;2023-09-19T06:06:33;1.52;;;0.73;;
27313;SDS011;14800;48.174;9.798;2023-09-19T06:09:04;1.00;;;0.77;;
27313;SDS011;14800;48.174;9.798;2023-09-19T06:11:34;2.92;;;0.98;;
27313;SDS011;14800;48.174;9.798;2023-09-19T06:14:03;1.35;;;0.70;;
27313;SDS011;14800;48.174;9.798;2023-09-19T06:16:29;0.95;;;0.70;;
27313;SDS011;14800;48.174;9.798;2023-09-19T06:18:57;1.20;;;0.82;;
27313;SDS011;14800;48.174;9.798;2023-09-19T06:21:24;1.48;;;0.90;;
27313;SDS011;14800;48.174;9.798;2023-09-19T06:23:51;1.08;;;0.80;;
27313;SDS011;14800;48.174;9.798;2023-09-19T06:26:18;3.47;;;0.98;;
27313;SDS011;14800;48.174;9.798;2023-09-19T06:28:43;1.08;;;0.75;;
27313;SDS011;14800;48.174;9.798;2023-09-19T06:31:09;1.73;;;0.90;;
27313;SDS011;14800;48.174;9.798;2023-09-19T06:33:38;1.02;;;0.70;;
27313;SDS011;14800;48.174;9.798;2023-09-19T06:36:04;1.60;;;0.93;;
27313;SDS011;14800;48.174;9.798;2023-09-19T06:38:30;1.00;;;0.70;;
27313;SDS011;14800;48.174;9.798;2023-09-19T06:40:58;1.27;;;0.80;;
27313;SDS011;14800;48.174;9.798;2023-09-19T06:43:26;1.23;;;0.68;;
27313;SDS011;14800;48.174;9.798;2023-09-19T06:45:53;1.02;;;0.80;;
27313;SDS011;14800;48.174;9.798;2023-09-19T06:48:19;1.80;;;0.80;;
27313;SDS011;14800;48.174;9.798;2023-09-19T06:50:46;1.13;;;0.80;;
27313;SDS011;14800;48.174;9.798;2023-09-19T06:53:13;0.77;;;0.50;;
27313;SDS011;14800;48.174;9.798;2023-09-19T06:55:41;1.15;;;0.73;;
27313;SDS011;14800;48.174;9.798;2023-09-19T06:58:09;1.27;;;0.60;;
27313;SDS011;14800;48.174;9.798;2023-09-19T07:00:35;1.00;;;0.70;;
27313;SDS011;14800;48.174;9.798;2023-09-19T07:05:29;2.80;;;0.85;;
27313;SDS011;14800;48.174;9.798;2023-09-19T07:07:56;2.53;;;0.63;;
27313;SDS011;14800;48.174;9.798;2023-09-19T07:10:24;1.13;;;0.75;;
27313;SDS011;14800;48.174;9.798;2023-09-19T07:13:00;1.33;;;0.60;;
27313;SDS011;14800;48.174;9.798;2023-09-19T07:15:27;0.82;;;0.68;;
27313;SDS011;14800;48.174;9.798;2023-09-19T07:17:55;0.40;;;0.40;;
27313;SDS011;14800;48.174;9.798;2023-09-19T07:20:21;1.67;;;0.90;;
27313;SDS011;14800;48.174;9.798;2023-09-19T07:22:51;1.60;;;0.70;;
27313;SDS011;14800;48.174;9.798;2023-09-19T07:25:20;1.13;;;0.52;;
27313;SDS011;14800;48.174;9.798;2023-09-19T07:27:46;1.52;;;0.70;;
27313;SDS011;14800;48.174;9.798;2023-09-19T07:30:12;0.75;;;0.65;;
27313;SDS011;14800;48.174;9.798;2023-09-19T07:32:38;1.23;;;0.50;;
27313;SDS011;14800;48.174;9.798;2023-09-19T07:35:05;1.60;;;0.70;;
27313;SDS011;14800;48.174;9.798;2023-09-19T07:37:32;0.77;;;0.70;;
27313;SDS011;14800;48.174;9.798;2023-09-19T07:40:01;1.05;;;0.57;;
27313;SDS011;14800;48.174;9.798;2023-09-19T07:42:37;1.25;;;0.60;;
27313;SDS011;14800;48.174;9.798;2023-09-19T07:45:05;2.50;;;0.75;;
27313;SDS011;14800;48.174;9.798;2023-09-19T07:47:32;0.75;;;0.65;;
27313;SDS011;14800;48.174;9.798;2023-09-19T07:49:59;1.10;;;0.70;;
27313;SDS011;14800;48.174;9.798;2023-09-19T07:52:26;2.22;;;0.90;;
27313;SDS011;14800;48.174;9.798;2023-09-19T07:54:53;1.88;;;0.60;;
27313;SDS011;14800;48.174;9.798;2023-09-19T07:57:19;2.30;;;0.90;;
27313;SDS011;14800;48.174;9.798;2023-09-19T07:59:45;1.52;;;0.73;;
27313;SDS011;14800;48.174;9.798;2023-09-19T08:02:10;1.30;;;0.60;;
27313;SDS011;14800;48.174;9.798;2023-09-19T08:04:43;1.05;;;0.70;;
27313;SDS011;14800;48.174;9.798;2023-09-19T08:07:14;1.60;;;0.70;;
27313;SDS011;14800;48.174;9.798;2023-09-19T08:09:40;1.58;;;0.80;;
27313;SDS011;14800;48.174;9.798;2023-09-19T08:12:06;4.38;;;0.88;;
27313;SDS011;14800;48.174;9.798;2023-09-19T08:14:35;1.77;;;0.60;;
27313;SDS011;14800;48.174;9.798;2023-09-19T08:17:02;2.08;;;0.60;;
27313;SDS011;14800;48.174;9.798;2023-09-19T08:19:28;3.13;;;0.63;;
27313;SDS011;14800;48.174;9.798;2023-09-19T08:21:57;1.10;;;0.75;;
27313;SDS011;14800;48.174;9.798;2023-09-19T08:24:27;0.88;;;0.70;;
27313;SDS011;14800;48.174;9.798;2023-09-19T08:26:53;1.30;;;0.75;;
27313;SDS011;14800;48.174;9.798;2023-09-19T08:29:20;1.48;;;0.70;;
27313;SDS011;14800;48.174;9.798;2023-09-19T08:31:52;1.20;;;0.65;;
27313;SDS011;14800;48.174;9.798;2023-09-19T08:34:24;0.80;;;0.70;;
27313;SDS011;14800;48.174;9.798;2023-09-19T08:36:51;2.53;;;0.73;;
27313;SDS011;14800;48.174;9.798;2023-09-19T08:39:21;1.35;;;0.73;;
27313;SDS011;14800;48.174;9.798;2023-09-19T08:41:47;2.45;;;0.55;;
27313;SDS011;14800;48.174;9.798;2023-09-19T08:44:13;1.38;;;0.90;;
27313;SDS011;14800;48.174;9.798;2023-09-19T08:46:40;1.35;;;0.90;;
27313;SDS011;14800;48.174;9.798;2023-09-19T08:52:18;0.80;;;0.80;;
27313;SDS011;14800;48.174;9.798;2023-09-19T08:54:48;2.25;;;0.50;;
27313;SDS011;14800;48.174;9.798;2023-09-19T08:57:18;0.85;;;0.70;;
27313;SDS011;14800;48.174;9.798;2023-09-19T08:59:47;0.70;;;0.70;;
27313;SDS011;14800;48.174;9.798;2023-09-19T09:02:13;0.80;;;0.80;;
27313;SDS011;14800;48.174;9.798;2023-09-19T09:04:40;1.23;;;0.70;;
27313;SDS011;14800;48.174;9.798;2023-09-19T09:07:11;1.77;;;0.60;;
27313;SDS011;14800;48.174;9.798;2023-09-19T09:09:40;1.52;;;0.95;;
27313;SDS011;14800;48.174;9.798;2023-09-19T09:12:08;1.40;;;0.60;;
27313;SDS011;14800;48.174;9.798;2023-09-19T09:14:38;1.70;;;0.90;;
27313;SDS011;14800;48.174;9.798;2023-09-19T09:17:04;1.95;;;0.70;;
27313;SDS011;14800;48.174;9.798;2023-09-19T09:19:30;0.95;;;0.70;;
27313;SDS011;14800;48.174;9.798;2023-09-19T09:22:06;0.98;;;0.70;;
27313;SDS011;14800;48.174;9.798;2023-09-19T09:24:36;0.50;;;0.50;;
27313;SDS011;14800;48.174;9.798;2023-09-19T09:27:04;0.80;;;0.63;;
27313;SDS011;14800;48.174;9.798;2023-09-19T09:29:48;3.08;;;0.70;;
27313;SDS011;14800;48.174;9.798;2023-09-19T09:35:02;1.15;;;0.60;;
27313;SDS011;14800;48.174;9.798;2023-09-19T09:37:35;1.70;;;0.80;;
27313;SDS011;14800;48.174;9.798;2023-09-19T09:40:04;1.35;;;0.55;;
27313;SDS011;14800;48.174;9.798;2023-09-19T09:42:39;2.40;;;0.40;;
27313;SDS011;14800;48.174;9.798;2023-09-19T09:45:23;1.33;;;0.45;;
27313;SDS011;14800;48.174;9.798;2023-09-19T09:47:58;1.92;;;0.40;;
27313;SDS011;14800;48.174;9.798;2023-09-19T09:50:25;1.02;;;0.55;;
27313;SDS011;14800;48.174;9.798;2023-09-19T09:53:05;3.13;;;0.52;;
27313;SDS011;14800;48.174;9.798;2023-09-19T09:58:25;0.70;;;0.47;;
27313;SDS011;14800;48.174;9.798;2023-09-19T10:00:57;1.23;;;0.30;;
27313;SDS011;14800;48.174;9.798;2023-09-19T10:03:31;0.73;;;0.40;;
27313;SDS011;14800;48.174;9.798;2023-09-19T10:06:08;1.20;;;0.40;;
27313;SDS011;14800;48.174;9.798;2023-09-19T10:11:30;1.58;;;0.63;;
27313;SDS011;14800;48.174;9.798;2023-09-19T10:13:57;0.50;;;0.47;;
27313;SDS011;14800;48.174;9.798;2023-09-19T10:16:26;1.90;;;0.60;;
27313;SDS011;14800;48.174;9.798;2023-09-19T10:18:57;0.60;;;0.50;;
27313;SDS011;14800;48.174;9.798;2023-09-19T10:21:27;0.50;;;0.50;;
27313;SDS011;14800;48.174;9.798;2023-09-19T10:23:55;2.25;;;0.55;;
27313;SDS011;14800;48.174;9.798;2023-09-19T10:26:24;1.27;;;0.65;;
27313;SDS011;14800;48.174;9.798;2023-09-19T10:28:56;1.17;;;0.47;;
27313;SDS011;14800;48.174;9.798;2023-09-19T10:31:22;0.85;;;0.50;;
27313;SDS011;14800;48.174;9.798;2023-09-19T10:33:50;1.13;;;0.60;;
27313;SDS011;14800;48.174;9.798;2023-09-19T10:36:18;1.65;;;0.75;;
27313;SDS011;14800;48.174;9.798;2023-09-19T10:38:45;1.92;;;0.60;;
27313;SDS011;14800;48.174;9.798;2023-09-19T10:41:14;1.05;;;0.70;;
27313;SDS011;14800;48.174;9.798;2023-09-19T10:43:41;1.20;;;0.80;;
27313;SDS011;14800;48.174;9.798;2023-09-19T10:46:11;0.82;;;0.50;;
27313;SDS011;14800;48.174;9.798;2023-09-19T10:48:38;1.52;;;0.60;;
27313;SDS011;14800;48.174;9.798;2023-09-19T10:51:12;0.60;;;0.57;;
27313;SDS011;14800;48.174;9.798;2023-09-19T10:56:26;0.75;;;0.70;;
27313;SDS011;14800;48.174;9.798;2023-09-19T10:59:11;0.90;;;0.70;;
27313;SDS011;14800;48.174;9.798;2023-09-19T11:01:49;0.60;;;0.50;;
27313;SDS011;14800;48.174;9.798;2023-09-19T11:04:31;1.48;;;0.80;;
27313;SDS011;14800;48.174;9.798;2023-09-19T11:07:11;0.77;;;0.60;;
27313;SDS011;14800;48.174;9.798;2023-09-19T11:26:42;1.58;;;0.88;;
27313;SDS011;14800;48.174;9.798;2023-09-19T11:29:24;2.17;;;1.00;;
27313;SDS011;14800;48.174;9.798;2023-09-19T11:31:50;1.08;;;0.98;;
27313;SDS011;14800;48.174;9.798;2023-09-19T11:35:02;1.05;;;0.77;;
27313;SDS011;14800;48.174;9.798;2023-09-19T11:39:36;1.75;;;0.70;;
27313;SDS011;14800;48.174;9.798;2023-09-19T11:42:30;1.67;;;0.50;;
27313;SDS011;14800;48.174;9.798;2023-09-19T11:48:22;1.95;;;0.60;;
27313;SDS011;14800;48.174;9.798;2023-09-19T11:50:52;0.90;;;0.63;;
27313;SDS011;14800;48.174;9.798;2023-09-19T11:53:18;0.57;;;0.57;;
27313;SDS011;14800;48.174;9.798;2023-09-19T11:55:45;2.88;;;0.60;;
27313;SDS011;14800;48.174;9.798;2023-09-19T11:58:11;0.60;;;0.55;;
27313;SDS011;14800;48.174;9.798;2023-09-19T12:00:39;1.65;;;0.80;;
27313;SDS011;14800;48.174;9.798;2023-09-19T12:03:09;2.13;;;1.05;;
27313;SDS011;14800;48.174;9.798;2023-09-19T12:05:36;0.43;;;0.43;;
27313;SDS011;14800;48.174;9.798;2023-09-19T12:08:02;1.83;;;0.50;;
27313;SDS011;14800;48.174;9.798;2023-09-19T12:10:32;0.85;;;0.60;;
27313;SDS011;14800;48.174;9.798;2023-09-19T12:12:58;1.58;;;0.70;;
27313;SDS011;14800;48.174;9.798;2023-09-19T12:15:27;0.50;;;0.50;;
27313;SDS011;14800;48.174;9.798;2023-09-19T12:17:59;0.95;;;0.60;;
27313;SDS011;14800;48.174;9.798;2023-09-19T12:20:25;1.48;;;0.60;;
27313;SDS011;14800;48.174;9.798;2023-09-19T12:22:50;0.47;;;0.40;;
27313;SDS011;14800;48.174;9.798;2023-09-19T12:25:16;0.95;;;0.50;;
27313;SDS011;14800;48.174;9.798;2023-09-19T12:30:09;0.73;;;0.50;;
27313;SDS011;14800;48.174;9.798;2023-09-19T12:32:39;1.05;;;0.60;;
27313;SDS011;14800;48.174;9.798;2023-09-19T12:35:06;0.65;;;0.50;;
27313;SDS011;14800;48.174;9.798;2023-09-19T12:37:42;0.80;;;0.50;;
27313;SDS011;14800;48.174;9.798;2023-09-19T12:40:13;1.95;;;0.77;;
27313;SDS011;14800;48.174;9.798;2023-09-19T12:42:43;1.40;;;0.52;;
27313;SDS011;14800;48.174;9.798;2023-09-19T12:45:10;0.57;;;0.55;;
27313;SDS011;14800;48.174;9.798;2023-09-19T12:47:38;2.88;;;0.60;;
27313;SDS011;14800;48.174;9.798;2023-09-19T12:52:38;1.25;;;0.40;;
27313;SDS011;14800;48.174;9.798;2023-09-19T12:55:05;1.33;;;0.55;;
27313;SDS011;14800;48.174;9.798;2023-09-19T12:57:33;2.70;;;0.50;;
27313;SDS011;14800;48.174;9.798;2023-09-19T13:00:03;1.30;;;0.70;;
27313;SDS011;14800;48.174;9.798;2023-09-19T13:02:35;1.08;;;0.60;;
27313;SDS011;14800;48.174;9.798;2023-09-19T13:05:01;3.58;;;0.60;;
27313;SDS011;14800;48.174;9.798;2023-09-19T13:07:42;2.10;;;0.63;;
27313;SDS011;14800;48.174;9.798;2023-09-19T13:10:09;1.55;;;0.60;;
27313;SDS011;14800;48.174;9.798;2023-09-19T13:12:35;0.82;;;0.70;;
27313;SDS011;14800;48.174;9.798;2023-09-19T13:15:12;0.77;;;0.70;;
27313;SDS011;14800;48.174;9.798;2023-09-19T13:17:44;4.93;;;0.95;;
27313;SDS011;14800;48.174;9.798;2023-09-19T13:20:26;1.17;;;0.80;;
27313;SDS011;14800;48.174;9.798;2023-09-19T13:22:53;0.90;;;0.75;;
27313;SDS011;14800;48.174;9.798;2023-09-19T13:25:23;1.25;;;0.88;;
27313;SDS011;14800;48.174;9.798;2023-09-19T13:30:16;3.33;;;1.02;;
27313;SDS011;14800;48.174;9.798;2023-09-19T13:32:43;1.02;;;0.60;;
27313;SDS011;14800;48.174;9.798;2023-09-19T13:35:09;1.30;;;0.80;;
27313;SDS011;14800;48.174;9.798;2023-09-19T13:37:35;1.52;;;0.80;;
27313;SDS011;14800;48.174;9.798;2023-09-19T13:40:07;0.88;;;0.65;;
27313;SDS011;14800;48.174;9.798;2023-09-19T13:42:36;1.27;;;0.40;;
27313;SDS011;14800;48.174;9.798;2023-09-19T13:45:03;0.75;;;0.70;;
27313;SDS011;14800;48.174;9.798;2023-09-19T13:47:32;0.73;;;0.70;;
27313;SDS011;14800;48.174;9.798;2023-09-19T13:49:59;1.30;;;0.70;;
27313;SDS011;14800;48.174;9.798;2023-09-19T13:52:26;1.23;;;0.88;;
27313;SDS011;14800;48.174;9.798;2023-09-19T13:54:55;1.65;;;0.77;;
27313;SDS011;14800;48.174;9.798;2023-09-19T13:57:22;1.65;;;0.70;;
27313;SDS011;14800;48.174;9.798;2023-09-19T13:59:48;1.30;;;0.80;;
27313;SDS011;14800;48.174;9.798;2023-09-19T14:02:13;0.88;;;0.75;;
27313;SDS011;14800;48.174;9.798;2023-09-19T14:04:39;1.35;;;0.70;;
27313;SDS011;14800;48.174;9.798;2023-09-19T14:07:05;1.10;;;0.55;;
27313;SDS011;14800;48.174;9.798;2023-09-19T14:09:32;3.10;;;0.50;;
27313;SDS011;14800;48.174;9.798;2023-09-19T14:11:58;1.88;;;0.85;;
27313;SDS011;14800;48.174;9.798;2023-09-19T14:14:24;1.73;;;0.70;;
27313;SDS011;14800;48.174;9.798;2023-09-19T14:16:50;0.95;;;0.70;;
27313;SDS011;14800;48.174;9.798;2023-09-19T14:19:17;1.00;;;0.70;;
27313;SDS011;14800;48.174;9.798;2023-09-19T14:21:43;1.40;;;0.60;;
27313;SDS011;14800;48.174;9.798;2023-09-19T14:24:08;1.05;;;0.80;;
27313;SDS011;14800;48.174;9.798;2023-09-19T14:26:35;1.00;;;0.70;;
27313;SDS011;14800;48.174;9.798;2023-09-19T14:29:01;1.05;;;0.70;;
27313;SDS011;14800;48.174;9.798;2023-09-19T14:31:27;1.35;;;0.70;;
27313;SDS011;14800;48.174;9.798;2023-09-19T14:33:53;1.00;;;0.63;;
27313;SDS011;14800;48.174;9.798;2023-09-19T14:36:21;2.15;;;0.60;;
27313;SDS011;14800;48.174;9.798;2023-09-19T14:38:47;3.28;;;0.60;;
27313;SDS011;14800;48.174;9.798;2023-09-19T14:41:13;4.03;;;1.00;;
27313;SDS011;14800;48.174;9.798;2023-09-19T14:43:38;1.08;;;0.55;;
27313;SDS011;14800;48.174;9.798;2023-09-19T14:46:07;2.15;;;0.60;;
27313;SDS011;14800;48.174;9.798;2023-09-19T14:48:33;0.65;;;0.50;;
27313;SDS011;14800;48.174;9.798;2023-09-19T14:51:08;0.90;;;0.70;;
27313;SDS011;14800;48.174;9.798;2023-09-19T14:53:34;0.80;;;0.40;;
27313;SDS011;14800;48.174;9.798;2023-09-19T14:56:01;2.20;;;0.70;;
27313;SDS011;14800;48.174;9.798;2023-09-19T14:58:30;0.68;;;0.60;;
27313;SDS011;14800;48.174;9.798;2023-09-19T15:03:32;1.65;;;0.55;;
27313;SDS011;14800;48.174;9.798;2023-09-19T15:06:02;2.00;;;0.50;;
27313;SDS011;14800;48.174;9.798;2023-09-19T15:08:32;3.08;;;0.70;;
27313;SDS011;14800;48.174;9.798;2023-09-19T15:11:00;1.27;;;0.57;;
27313;SDS011;14800;48.174;9.798;2023-09-19T15:13:32;2.85;;;0.63;;
27313;SDS011;14800;48.174;9.798;2023-09-19T15:16:05;1.05;;;0.70;;
27313;SDS011;14800;48.174;9.798;2023-09-19T15:18:37;1.50;;;0.60;;
27313;SDS011;14800;48.174;9.798;2023-09-19T15:21:04;0.95;;;0.57;;
27313;SDS011;14800;48.174;9.798;2023-09-19T15:23:30;0.85;;;0.70;;
27313;SDS011;14800;48.174;9.798;2023-09-19T15:25:59;3.08;;;0.60;;
27313;SDS011;14800;48.174;9.798;2023-09-19T15:28:26;0.77;;;0.70;;
27313;SDS011;14800;48.174;9.798;2023-09-19T15:31:02;0.85;;;0.50;;
27313;SDS011;14800;48.174;9.798;2023-09-19T15:33:29;0.70;;;0.60;;
27313;SDS011;14800;48.174;9.798;2023-09-19T15:36:04;1.58;;;0.52;;
27313;SDS011;14800;48.174;9.798;2023-09-19T15:41:18;1.08;;;0.52;;
27313;SDS011;14800;48.174;9.798;2023-09-19T15:43:45;1.08;;;0.80;;
27313;SDS011;14800;48.174;9.798;2023-09-19T15:46:11;1.05;;;0.60;;
27313;SDS011;14800;48.174;9.798;2023-09-19T15:48:36;1.73;;;0.60;;
27313;SDS011;14800;48.174;9.798;2023-09-19T15:51:03;2.38;;;0.70;;
27313;SDS011;14800;48.174;9.798;2023-09-19T15:53:31;2.42;;;0.50;;
27313;SDS011;14800;48.174;9.798;2023-09-19T15:56:06;1.08;;;0.45;;
27313;SDS011;14800;48.174;9.798;2023-09-19T15:58:32;1.95;;;0.60;;
27313;SDS011;14800;48.174;9.798;2023-09-19T16:01:04;2.60;;;0.70;;
27313;SDS011;14800;48.174;9.798;2023-09-19T16:03:39;2.15;;;0.60;;
27313;SDS011;14800;48.174;9.798;2023-09-19T16:06:11;0.90;;;0.60;;
27313;SDS011;14800;48.174;9.798;2023-09-19T16:08:39;3.30;;;0.60;;
27313;SDS011;14800;48.174;9.798;2023-09-19T16:11:09;0.90;;;0.50;;